sensor_id;sensor_type;location;lat;lon;timestamp;pressure;altitude;pressure_sealevel;temperature;humidity
51452;BME280;37521;52.020;-1.740;2023-07-13T00:01:14;99717.13;;;12.22;100.00
51452;BME280;37521;52.020;-1.740;2023-07-13T00:03:43;99716.97;;;12.25;100.00
51452;BME280;37521;52.020;-1.740;2023-07-13T00:06:12;99708.84;;;12.28;100.00
51452;BME280;37521;52.020;-1.740;2023-07-13T00:08:40;99710.53;;;12.29;100.00
51452;BME280;37521;52.020;-1.740;2023-07-13T00:11:09;99706.94;;;12.30;100.00
51452;BME280;37521;52.020;-1.740;2023-07-13T00:13:38;99710.53;;;12.29;100.00
51452;BME280;37521;52.020;-1.740;2023-07-13T00:16:10;99704.50;;;12.27;100.00
51452;BME280;37521;52.020;-1.740;2023-07-13T00:18:41;99709.78;;;12.27;100.00
51452;BME280;37521;52.020;-1.740;2023-07-13T00:21:09;99705.34;;;12.27;100.00
51452;BME280;37521;52.020;-1.740;2023-07-13T00:23:39;99707.16;;;12.27;100.00
51452;BME280;37521;52.020;-1.740;2023-07-13T00:26:10;99712.34;;;12.28;100.00
51452;BME280;37521;52.020;-1.740;2023-07-13T00:28:40;99716.78;;;12.28;100.00
51452;BME280;37521;52.020;-1.740;2023-07-13T00:31:11;99709.78;;;12.27;100.00
51452;BME280;37521;52.020;-1.740;2023-07-13T00:33:42;99711.84;;;12.22;100.00
51452;BME280;37521;52.020;-1.740;2023-07-13T00:36:11;99706.91;;;12.16;100.00
51452;BME280;37521;52.020;-1.740;2023-07-13T00:38:40;99708.78;;;12.14;100.00
51452;BME280;37521;52.020;-1.740;2023-07-13T00:41:09;99703.50;;;12.14;100.00
51452;BME280;37521;52.020;-1.740;2023-07-13T00:43:38;99705.28;;;12.13;100.00
51452;BME280;37521;52.020;-1.740;2023-07-13T00:46:23;99700.09;;;12.12;100.00
51452;BME280;37521;52.020;-1.740;2023-07-13T00:48:54;99704.59;;;12.10;100.00
51452;BME280;37521;52.020;-1.740;2023-07-13T00:51:28;99708.28;;;12.07;100.00
51452;BME280;37521;52.020;-1.740;2023-07-13T00:54:00;99703.84;;;12.08;100.00
51452;BME280;37521;52.020;-1.740;2023-07-13T00:56:33;99701.97;;;12.10;100.00
51452;BME280;37521;52.020;-1.740;2023-07-13T00:59:03;99696.50;;;12.13;100.00
51452;BME280;37521;52.020;-1.740;2023-07-13T01:01:36;99703.50;;;12.14;100.00
51452;BME280;37521;52.020;-1.740;2023-07-13T01:04:06;99699.91;;;12.15;100.00
51452;BME280;37521;52.020;-1.740;2023-07-13T01:06:36;99696.16;;;12.19;100.00
51452;BME280;37521;52.020;-1.740;2023-07-13T01:09:06;99696.91;;;12.21;100.00
51452;BME280;37521;52.020;-1.740;2023-07-13T01:11:37;99702.97;;;12.23;100.00
51452;BME280;37521;52.020;-1.740;2023-07-13T01:14:06;99692.56;;;12.20;100.00
51452;BME280;37521;52.020;-1.740;2023-07-13T01:16:37;99696.16;;;12.19;100.00
51452;BME280;37521;52.020;-1.740;2023-07-13T01:19:19;99688.97;;;12.21;100.00
51452;BME280;37521;52.020;-1.740;2023-07-13T01:21:53;99692.38;;;12.23;100.00
51452;BME280;37521;52.020;-1.740;2023-07-13T01:24:22;99694.09;;;12.24;100.00
51452;BME280;37521;52.020;-1.740;2023-07-13T01:26:51;99699.41;;;12.24;100.00
51452;BME280;37521;52.020;-1.740;2023-07-13T01:29:20;99697.66;;;12.23;100.00
51452;BME280;37521;52.020;-1.740;2023-07-13T01:31:49;99697.97;;;12.18;100.00
51452;BME280;37521;52.020;-1.740;2023-07-13T01:34:17;99698.22;;;12.14;100.00
51452;BME280;37521;52.020;-1.740;2023-07-13T01:36:46;99698.41;;;12.11;100.00
51452;BME280;37521;52.020;-1.740;2023-07-13T01:39:16;99695.31;;;12.03;100.00
51452;BME280;37521;52.020;-1.740;2023-07-13T01:41:44;99704.47;;;11.97;100.00
51452;BME280;37521;52.020;-1.740;2023-07-13T01:44:13;99691.66;;;11.89;100.00
51452;BME280;37521;52.020;-1.740;2023-07-13T01:46:41;99685.97;;;11.81;100.00
51452;BME280;37521;52.020;-1.740;2023-07-13T01:49:10;99691.75;;;11.72;100.00
51452;BME280;37521;52.020;-1.740;2023-07-13T01:51:39;99693.09;;;11.63;100.00
51452;BME280;37521;52.020;-1.740;2023-07-13T01:54:07;99695.16;;;11.58;100.00
51452;BME280;37521;52.020;-1.740;2023-07-13T01:56:37;99688.22;;;11.56;100.00
51452;BME280;37521;52.020;-1.740;2023-07-13T01:59:06;99692.75;;;11.54;100.00
51452;BME280;37521;52.020;-1.740;2023-07-13T02:01:35;99693.63;;;11.54;100.00
51452;BME280;37521;52.020;-1.740;2023-07-13T02:04:04;99698.13;;;11.52;100.00
51452;BME280;37521;52.020;-1.740;2023-07-13T02:06:33;99699.94;;;11.52;100.00
51452;BME280;37521;52.020;-1.740;2023-07-13T02:09:02;99685.94;;;11.50;100.00
51452;BME280;37521;52.020;-1.740;2023-07-13T02:11:32;99689.50;;;11.49;100.00
51452;BME280;37521;52.020;-1.740;2023-07-13T02:14:03;99689.50;;;11.49;100.00
51452;BME280;37521;52.020;-1.740;2023-07-13T02:16:32;99694.78;;;11.49;100.00
51452;BME280;37521;52.020;-1.740;2023-07-13T02:19:00;99688.66;;;11.48;100.00
51452;BME280;37521;52.020;-1.740;2023-07-13T02:21:29;99685.94;;;11.50;100.00
51452;BME280;37521;52.020;-1.740;2023-07-13T02:23:58;99693.09;;;11.48;100.00
51452;BME280;37521;52.020;-1.740;2023-07-13T02:26:27;99689.78;;;11.44;100.00
51452;BME280;37521;52.020;-1.740;2023-07-13T02:28:55;99695.06;;;11.44;100.00
51452;BME280;37521;52.020;-1.740;2023-07-13T02:31:25;99682.00;;;11.41;100.00
51452;BME280;37521;52.020;-1.740;2023-07-13T02:33:54;99683.03;;;11.38;100.00
51452;BME280;37521;52.020;-1.740;2023-07-13T02:36:23;99688.47;;;11.35;100.00
51452;BME280;37521;52.020;-1.740;2023-07-13T02:38:51;99692.25;;;11.31;100.00
51452;BME280;37521;52.020;-1.740;2023-07-13T02:41:20;99687.09;;;11.28;100.00
51452;BME280;37521;52.020;-1.740;2023-07-13T02:43:50;99687.28;;;11.25;100.00
51452;BME280;37521;52.020;-1.740;2023-07-13T02:46:18;99695.31;;;11.24;100.00
51452;BME280;37521;52.020;-1.740;2023-07-13T02:48:49;99689.50;;;11.17;100.00
51452;BME280;37521;52.020;-1.740;2023-07-13T02:51:17;99693.22;;;11.13;100.00
51452;BME280;37521;52.020;-1.740;2023-07-13T02:53:46;99689.03;;;11.09;100.00
51452;BME280;37521;52.020;-1.740;2023-07-13T02:56:14;99696.00;;;11.10;100.00
51452;BME280;37521;52.020;-1.740;2023-07-13T02:58:44;99692.47;;;11.11;100.00
51452;BME280;37521;52.020;-1.740;2023-07-13T03:01:12;99694.25;;;11.10;100.00
51452;BME280;37521;52.020;-1.740;2023-07-13T03:03:46;99689.97;;;11.08;100.00
51452;BME280;37521;52.020;-1.740;2023-07-13T03:06:18;99682.97;;;11.07;100.00
51452;BME280;37521;52.020;-1.740;2023-07-13T03:08:52;99681.94;;;11.09;100.00
51452;BME280;37521;52.020;-1.740;2023-07-13T03:11:22;99679.50;;;11.06;100.00
51452;BME280;37521;52.020;-1.740;2023-07-13T03:14:02;99679.63;;;11.03;100.00
51452;BME280;37521;52.020;-1.740;2023-07-13T03:16:35;99681.44;;;11.03;100.00
51452;BME280;37521;52.020;-1.740;2023-07-13T03:19:04;99680.56;;;11.02;100.00
51452;BME280;37521;52.020;-1.740;2023-07-13T03:21:34;99685.09;;;11.00;100.00
51452;BME280;37521;52.020;-1.740;2023-07-13T03:24:03;99679.72;;;11.02;100.00
51452;BME280;37521;52.020;-1.740;2023-07-13T03:26:32;99684.88;;;11.05;100.00
51452;BME280;37521;52.020;-1.740;2023-07-13T03:29:02;99682.28;;;11.03;100.00
51452;BME280;37521;52.020;-1.740;2023-07-13T03:31:34;99685.00;;;11.02;100.00
51452;BME280;37521;52.020;-1.740;2023-07-13T03:34:03;99688.91;;;10.95;100.00
51452;BME280;37521;52.020;-1.740;2023-07-13T03:36:34;99689.94;;;10.92;100.00
51452;BME280;37521;52.020;-1.740;2023-07-13T03:39:06;99696.22;;;10.89;100.00
51452;BME280;37521;52.020;-1.740;2023-07-13T03:41:47;99695.53;;;10.86;100.00
51452;BME280;37521;52.020;-1.740;2023-07-13T03:44:17;99694.84;;;10.82;100.00
51452;BME280;37521;52.020;-1.740;2023-07-13T03:46:50;99695.00;;;10.79;100.00
51452;BME280;37521;52.020;-1.740;2023-07-13T03:49:19;99700.28;;;10.79;100.00
51452;BME280;37521;52.020;-1.740;2023-07-13T03:51:49;99699.53;;;10.77;100.00
51452;BME280;37521;52.020;-1.740;2023-07-13T03:54:20;99700.69;;;10.72;100.00
51452;BME280;37521;52.020;-1.740;2023-07-13T03:56:49;99703.47;;;10.69;100.00
51452;BME280;37521;52.020;-1.740;2023-07-13T03:59:20;99703.75;;;10.64;100.00
51452;BME280;37521;52.020;-1.740;2023-07-13T04:01:49;99708.16;;;10.63;100.00
51452;BME280;37521;52.020;-1.740;2023-07-13T04:04:17;99709.00;;;10.64;100.00
51452;BME280;37521;52.020;-1.740;2023-07-13T04:06:46;99706.38;;;10.64;100.00
51452;BME280;37521;52.020;-1.740;2023-07-13T04:09:16;99699.34;;;10.63;100.00
51452;BME280;37521;52.020;-1.740;2023-07-13T04:11:45;99708.22;;;10.62;100.00
51452;BME280;37521;52.020;-1.740;2023-07-13T04:14:14;99699.34;;;10.63;100.00
51452;BME280;37521;52.020;-1.740;2023-07-13T04:16:42;99704.63;;;10.63;100.00
51452;BME280;37521;52.020;-1.740;2023-07-13T04:19:12;99696.72;;;10.63;100.00
51452;BME280;37521;52.020;-1.740;2023-07-13T04:21:41;99695.88;;;10.62;100.00
51452;BME280;37521;52.020;-1.740;2023-07-13T04:24:10;99701.09;;;10.64;100.00
51452;BME280;37521;52.020;-1.740;2023-07-13T04:26:40;99697.44;;;10.67;100.00
51452;BME280;37521;52.020;-1.740;2023-07-13T04:29:08;99699.22;;;10.66;100.00
51452;BME280;37521;52.020;-1.740;2023-07-13T04:31:37;99704.41;;;10.68;100.00
51452;BME280;37521;52.020;-1.740;2023-07-13T04:34:05;99710.41;;;10.71;100.00
51452;BME280;37521;52.020;-1.740;2023-07-13T04:36:34;99700.69;;;10.72;100.00
51452;BME280;37521;52.020;-1.740;2023-07-13T04:39:04;99702.31;;;10.74;100.00
51452;BME280;37521;52.020;-1.740;2023-07-13T04:41:33;99703.03;;;10.78;100.00
51452;BME280;37521;52.020;-1.740;2023-07-13T04:44:04;99702.69;;;10.84;100.00
51452;BME280;37521;52.020;-1.740;2023-07-13T04:46:32;99705.03;;;10.90;100.00
51452;BME280;37521;52.020;-1.740;2023-07-13T04:49:01;99705.78;;;10.92;100.00
51452;BME280;37521;52.020;-1.740;2023-07-13T04:51:31;99703.91;;;10.94;100.00
51452;BME280;37521;52.020;-1.740;2023-07-13T04:53:59;99703.81;;;10.96;100.00
51452;BME280;37521;52.020;-1.740;2023-07-13T04:56:28;99697.59;;;10.97;100.00
51452;BME280;37521;52.020;-1.740;2023-07-13T04:58:57;99709.72;;;11.01;100.00
51452;BME280;37521;52.020;-1.740;2023-07-13T05:01:27;99713.22;;;11.01;100.00
51452;BME280;37521;52.020;-1.740;2023-07-13T05:03:56;99714.91;;;11.02;100.00
51452;BME280;37521;52.020;-1.740;2023-07-13T05:06:26;99716.38;;;11.08;100.00
51452;BME280;37521;52.020;-1.740;2023-07-13T05:08:55;99718.78;;;11.12;100.00
51452;BME280;37521;52.020;-1.740;2023-07-13T05:11:24;99719.66;;;11.13;100.00
51452;BME280;37521;52.020;-1.740;2023-07-13T05:13:52;99722.19;;;11.14;100.00
51452;BME280;37521;52.020;-1.740;2023-07-13T05:16:21;99724.63;;;11.19;100.00
51452;BME280;37521;52.020;-1.740;2023-07-13T05:18:51;99738.59;;;11.21;100.00
51452;BME280;37521;52.020;-1.740;2023-07-13T05:21:20;99739.44;;;11.22;100.00
51452;BME280;37521;52.020;-1.740;2023-07-13T05:23:49;99739.44;;;11.22;100.00
51452;BME280;37521;52.020;-1.740;2023-07-13T05:26:18;99743.97;;;11.19;100.00
51452;BME280;37521;52.020;-1.740;2023-07-13T05:28:47;99742.16;;;11.20;100.00
51452;BME280;37521;52.020;-1.740;2023-07-13T05:31:16;99748.22;;;11.22;100.00
51452;BME280;37521;52.020;-1.740;2023-07-13T05:33:44;99757.69;;;11.26;100.00
51452;BME280;37521;52.020;-1.740;2023-07-13T05:36:14;99754.13;;;11.27;100.00
51452;BME280;37521;52.020;-1.740;2023-07-13T05:38:43;99762.66;;;11.32;100.00
51452;BME280;37521;52.020;-1.740;2023-07-13T05:41:11;99749.13;;;11.38;100.00
51452;BME280;37521;52.020;-1.740;2023-07-13T05:43:40;99756.56;;;11.48;100.00
51452;BME280;37521;52.020;-1.740;2023-07-13T05:46:08;99763.38;;;11.52;100.00
51452;BME280;37521;52.020;-1.740;2023-07-13T05:48:37;99764.16;;;11.54;100.00
51452;BME280;37521;52.020;-1.740;2023-07-13T05:51:06;99760.31;;;11.59;100.00
51452;BME280;37521;52.020;-1.740;2023-07-13T05:53:36;99753.84;;;11.65;100.00
51452;BME280;37521;52.020;-1.740;2023-07-13T05:56:04;99777.91;;;11.76;100.00
51452;BME280;37521;52.020;-1.740;2023-07-13T05:58:33;99774.00;;;11.83;100.00
51452;BME280;37521;52.020;-1.740;2023-07-13T06:01:03;99779.06;;;11.88;100.00
51452;BME280;37521;52.020;-1.740;2023-07-13T06:03:33;99782.41;;;11.91;100.00
51452;BME280;37521;52.020;-1.740;2023-07-13T06:06:01;99781.28;;;11.95;100.00
51452;BME280;37521;52.020;-1.740;2023-07-13T06:08:30;99788.88;;;12.02;100.00
51452;BME280;37521;52.020;-1.740;2023-07-13T06:11:05;99785.28;;;12.03;100.00
51452;BME280;37521;52.020;-1.740;2023-07-13T06:13:34;99793.69;;;12.11;100.00
51452;BME280;37521;52.020;-1.740;2023-07-13T06:16:04;99800.31;;;12.18;100.00
51452;BME280;37521;52.020;-1.740;2023-07-13T06:18:33;99803.53;;;12.23;100.00
51452;BME280;37521;52.020;-1.740;2023-07-13T06:21:06;99800.56;;;12.29;100.00
51452;BME280;37521;52.020;-1.740;2023-07-13T06:23:35;99794.91;;;12.35;100.00
51452;BME280;37521;52.020;-1.740;2023-07-13T06:26:05;99801.00;;;12.37;100.00
51452;BME280;37521;52.020;-1.740;2023-07-13T06:28:35;99796.22;;;12.44;100.00
51452;BME280;37521;52.020;-1.740;2023-07-13T06:31:06;99804.38;;;12.55;100.00
51452;BME280;37521;52.020;-1.740;2023-07-13T06:33:35;99803.16;;;12.61;100.00
51452;BME280;37521;52.020;-1.740;2023-07-13T06:36:06;99802.63;;;12.70;100.00
51452;BME280;37521;52.020;-1.740;2023-07-13T06:38:36;99806.56;;;12.78;100.00
51452;BME280;37521;52.020;-1.740;2023-07-13T06:41:07;99800.41;;;12.78;100.00
51452;BME280;37521;52.020;-1.740;2023-07-13T06:43:37;99801.25;;;12.78;100.00
51452;BME280;37521;52.020;-1.740;2023-07-13T06:46:06;99801.91;;;12.82;100.00
51452;BME280;37521;52.020;-1.740;2023-07-13T06:48:35;99803.69;;;12.81;100.00
51452;BME280;37521;52.020;-1.740;2023-07-13T06:51:04;99823.28;;;12.79;100.00
51452;BME280;37521;52.020;-1.740;2023-07-13T06:53:32;99818.84;;;12.79;100.00
51452;BME280;37521;52.020;-1.740;2023-07-13T06:56:01;99808.75;;;12.86;100.00
51452;BME280;37521;52.020;-1.740;2023-07-13T06:58:31;99812.63;;;12.95;100.00
51452;BME280;37521;52.020;-1.740;2023-07-13T07:00:59;99813.72;;;13.06;100.00
51452;BME280;37521;52.020;-1.740;2023-07-13T07:03:28;99813.50;;;13.09;100.00
51452;BME280;37521;52.020;-1.740;2023-07-13T07:06:00;99826.78;;;13.09;100.00
51452;BME280;37521;52.020;-1.740;2023-07-13T07:08:29;99822.41;;;13.08;100.00
51452;BME280;37521;52.020;-1.740;2023-07-13T07:10:57;99827.63;;;13.10;100.00
51452;BME280;37521;52.020;-1.740;2023-07-13T07:13:26;99828.97;;;13.17;100.00
51452;BME280;37521;52.020;-1.740;2023-07-13T07:15:58;99842.84;;;13.22;100.00
51452;BME280;37521;52.020;-1.740;2023-07-13T07:18:27;99839.91;;;13.27;100.00
51452;BME280;37521;52.020;-1.740;2023-07-13T07:20:56;99839.91;;;13.27;100.00
51452;BME280;37521;52.020;-1.740;2023-07-13T07:23:24;99841.63;;;13.28;100.00
51452;BME280;37521;52.020;-1.740;2023-07-13T07:25:53;99852.06;;;13.31;100.00
51452;BME280;37521;52.020;-1.740;2023-07-13T07:28:22;99843.16;;;13.32;100.00
51452;BME280;37521;52.020;-1.740;2023-07-13T07:30:55;99842.78;;;13.38;100.00
51452;BME280;37521;52.020;-1.740;2023-07-13T07:33:28;99839.75;;;13.44;100.00
51452;BME280;37521;52.020;-1.740;2023-07-13T07:35:58;99844.59;;;13.52;100.00
51452;BME280;37521;52.020;-1.740;2023-07-13T07:38:32;99849.53;;;13.58;100.00
51452;BME280;37521;52.020;-1.740;2023-07-13T07:41:03;99858.72;;;13.67;100.00
51452;BME280;37521;52.020;-1.740;2023-07-13T07:43:35;99848.09;;;13.67;100.00
51452;BME280;37521;52.020;-1.740;2023-07-13T07:46:04;99849.59;;;13.71;100.00
51452;BME280;37521;52.020;-1.740;2023-07-13T07:48:35;99857.97;;;13.79;100.00
51452;BME280;37521;52.020;-1.740;2023-07-13T07:51:03;99857.38;;;13.88;100.00
51452;BME280;37521;52.020;-1.740;2023-07-13T07:53:32;99862.53;;;13.91;100.00
51452;BME280;37521;52.020;-1.740;2023-07-13T07:56:01;99860.59;;;13.93;100.00
51452;BME280;37521;52.020;-1.740;2023-07-13T07:58:50;99865.53;;;13.99;100.00
51452;BME280;37521;52.020;-1.740;2023-07-13T08:01:21;99858.69;;;14.09;100.00
51452;BME280;37521;52.020;-1.740;2023-07-13T08:03:54;99863.72;;;14.14;100.00
51452;BME280;37521;52.020;-1.740;2023-07-13T08:06:27;99862.38;;;14.21;100.00
51452;BME280;37521;52.020;-1.740;2023-07-13T08:09:12;99858.47;;;14.27;100.00
51452;BME280;37521;52.020;-1.740;2023-07-13T08:11:42;99866.16;;;14.31;100.00
51452;BME280;37521;52.020;-1.740;2023-07-13T08:14:15;99863.50;;;14.31;100.00
51452;BME280;37521;52.020;-1.740;2023-07-13T08:16:44;99860.34;;;14.39;100.00
51452;BME280;37521;52.020;-1.740;2023-07-13T08:19:14;99861.81;;;14.57;100.00
51452;BME280;37521;52.020;-1.740;2023-07-13T08:21:42;99864.34;;;14.73;100.00
51452;BME280;37521;52.020;-1.740;2023-07-13T08:24:11;99858.88;;;14.89;100.00
51452;BME280;37521;52.020;-1.740;2023-07-13T08:26:39;99851.59;;;15.05;100.00
51452;BME280;37521;52.020;-1.740;2023-07-13T08:29:08;99865.22;;;15.13;100.00
51452;BME280;37521;52.020;-1.740;2023-07-13T08:31:39;99858.94;;;15.14;100.00
51452;BME280;37521;52.020;-1.740;2023-07-13T08:34:15;99852.88;;;15.12;100.00
51452;BME280;37521;52.020;-1.740;2023-07-13T08:36:44;99856.28;;;15.14;100.00
51452;BME280;37521;52.020;-1.740;2023-07-13T08:39:12;99862.56;;;15.13;100.00
51452;BME280;37521;52.020;-1.740;2023-07-13T08:41:41;99860.94;;;15.11;100.00
51452;BME280;37521;52.020;-1.740;2023-07-13T08:44:19;99868.84;;;15.12;100.00
51452;BME280;37521;52.020;-1.740;2023-07-13T08:46:52;99853.50;;;15.16;100.00
51452;BME280;37521;52.020;-1.740;2023-07-13T08:49:24;99858.72;;;15.17;100.00
51452;BME280;37521;52.020;-1.740;2023-07-13T08:51:57;99865.75;;;15.18;100.00
51452;BME280;37521;52.020;-1.740;2023-07-13T08:54:33;99857.78;;;15.18;100.00
51452;BME280;37521;52.020;-1.740;2023-07-13T08:57:10;99854.78;;;15.23;100.00
51452;BME280;37521;52.020;-1.740;2023-07-13T08:59:41;99873.97;;;15.28;100.00
51452;BME280;37521;52.020;-1.740;2023-07-13T09:02:26;99871.19;;;15.30;100.00
51452;BME280;37521;52.020;-1.740;2023-07-13T09:05:00;99869.81;;;15.37;100.00
51452;BME280;37521;52.020;-1.740;2023-07-13T09:07:42;99867.28;;;15.48;100.00
51452;BME280;37521;52.020;-1.740;2023-07-13T09:10:21;99865.38;;;15.63;100.00
51452;BME280;37521;52.020;-1.740;2023-07-13T09:13:01;99864.84;;;15.70;100.00
51452;BME280;37521;52.020;-1.740;2023-07-13T09:15:36;99866.13;;;15.77;100.00
51452;BME280;37521;52.020;-1.740;2023-07-13T09:18:10;99865.69;;;15.84;100.00
51452;BME280;37521;52.020;-1.740;2023-07-13T09:20:45;99868.91;;;15.89;100.00
51452;BME280;37521;52.020;-1.740;2023-07-13T09:23:17;99876.34;;;15.84;100.00
51452;BME280;37521;52.020;-1.740;2023-07-13T09:25:51;99871.44;;;15.77;100.00
51452;BME280;37521;52.020;-1.740;2023-07-13T09:28:25;99869.97;;;15.73;100.00
51452;BME280;37521;52.020;-1.740;2023-07-13T09:30:58;99871.69;;;15.74;100.00
51452;BME280;37521;52.020;-1.740;2023-07-13T09:33:29;99871.38;;;15.79;100.00
51452;BME280;37521;52.020;-1.740;2023-07-13T09:36:00;99880.50;;;15.88;100.00
51452;BME280;37521;52.020;-1.740;2023-07-13T09:38:30;99871.66;;;16.00;100.00
51452;BME280;37521;52.020;-1.740;2023-07-13T09:41:06;99869.28;;;16.08;100.00
51452;BME280;37521;52.020;-1.740;2023-07-13T09:43:37;99868.56;;;16.06;100.00
51452;BME280;37521;52.020;-1.740;2023-07-13T09:46:20;99870.56;;;16.02;100.00
51452;BME280;37521;52.020;-1.740;2023-07-13T09:48:49;99865.97;;;16.04;100.00
51452;BME280;37521;52.020;-1.740;2023-07-13T09:51:21;99873.22;;;16.15;100.00
51452;BME280;37521;52.020;-1.740;2023-07-13T09:53:50;99870.41;;;16.29;100.00
51452;BME280;37521;52.020;-1.740;2023-07-13T09:56:22;99877.41;;;16.43;100.00
51452;BME280;37521;52.020;-1.740;2023-07-13T09:58:51;99878.91;;;16.47;100.00
51452;BME280;37521;52.020;-1.740;2023-07-13T10:01:32;99880.72;;;16.47;100.00
51452;BME280;37521;52.020;-1.740;2023-07-13T10:04:01;99874.34;;;16.37;100.00
51452;BME280;37521;52.020;-1.740;2023-07-13T10:06:31;99882.78;;;16.30;100.00
51452;BME280;37521;52.020;-1.740;2023-07-13T10:09:00;99878.63;;;16.26;100.00
51452;BME280;37521;52.020;-1.740;2023-07-13T10:11:29;99876.94;;;16.25;100.00
51452;BME280;37521;52.020;-1.740;2023-07-13T10:14:00;99885.13;;;16.22;100.00
51452;BME280;37521;52.020;-1.740;2023-07-13T10:16:31;99882.06;;;16.16;100.00
51452;BME280;37521;52.020;-1.740;2023-07-13T10:19:03;99888.25;;;16.03;100.00
51452;BME280;37521;52.020;-1.740;2023-07-13T10:21:39;99891.47;;;15.70;100.00
51452;BME280;37521;52.020;-1.740;2023-07-13T10:24:15;99894.00;;;15.46;100.00
51452;BME280;37521;52.020;-1.740;2023-07-13T10:26:48;99900.03;;;15.36;100.00
51452;BME280;37521;52.020;-1.740;2023-07-13T10:29:17;99901.41;;;15.29;100.00
51452;BME280;37521;52.020;-1.740;2023-07-13T10:31:47;99899.03;;;15.24;100.00
51452;BME280;37521;52.020;-1.740;2023-07-13T10:34:17;99894.56;;;15.24;100.00
51452;BME280;37521;52.020;-1.740;2023-07-13T10:36:48;99890.56;;;15.32;100.00
51452;BME280;37521;52.020;-1.740;2023-07-13T10:39:19;99900.72;;;15.52;100.00
51452;BME280;37521;52.020;-1.740;2023-07-13T10:41:53;99886.56;;;15.90;100.00
51452;BME280;37521;52.020;-1.740;2023-07-13T10:44:27;99891.56;;;16.20;100.00
51452;BME280;37521;52.020;-1.740;2023-07-13T10:46:58;99888.34;;;16.51;100.00
51452;BME280;37521;52.020;-1.740;2023-07-13T10:49:30;99892.34;;;16.82;100.00
51452;BME280;37521;52.020;-1.740;2023-07-13T10:52:01;99886.16;;;17.17;100.00
51452;BME280;37521;52.020;-1.740;2023-07-13T10:54:31;99884.25;;;17.19;100.00
51452;BME280;37521;52.020;-1.740;2023-07-13T10:57:18;99884.47;;;17.16;100.00
51452;BME280;37521;52.020;-1.740;2023-07-13T10:59:49;99883.94;;;17.35;100.00
51452;BME280;37521;52.020;-1.740;2023-07-13T11:02:27;99878.72;;;17.44;100.00
51452;BME280;37521;52.020;-1.740;2023-07-13T11:04:56;99884.53;;;17.38;100.00
51452;BME280;37521;52.020;-1.740;2023-07-13T11:07:29;99883.00;;;17.47;100.00
51452;BME280;37521;52.020;-1.740;2023-07-13T11:10:03;99872.81;;;17.63;100.00
51452;BME280;37521;52.020;-1.740;2023-07-13T11:12:53;99872.53;;;17.79;100.00
51452;BME280;37521;52.020;-1.740;2023-07-13T11:15:43;99883.94;;;17.92;100.00
51452;BME280;37521;52.020;-1.740;2023-07-13T11:18:21;99871.56;;;18.03;100.00
51452;BME280;37521;52.020;-1.740;2023-07-13T11:20:52;99875.91;;;17.81;100.00
51452;BME280;37521;52.020;-1.740;2023-07-13T11:24:04;99882.22;;;17.91;100.00
51452;BME280;37521;52.020;-1.740;2023-07-13T11:26:51;99863.78;;;18.00;100.00
51452;BME280;37521;52.020;-1.740;2023-07-13T11:29:27;99865.94;;;18.17;100.00
51452;BME280;37521;52.020;-1.740;2023-07-13T11:32:22;99871.91;;;18.20;100.00
51452;BME280;37521;52.020;-1.740;2023-07-13T11:34:51;99865.47;;;18.23;100.00
51452;BME280;37521;52.020;-1.740;2023-07-13T11:37:20;99864.91;;;18.51;100.00
51452;BME280;37521;52.020;-1.740;2023-07-13T11:39:52;99861.25;;;18.75;100.00
51452;BME280;37521;52.020;-1.740;2023-07-13T11:42:21;99861.88;;;18.56;100.00
51452;BME280;37521;52.020;-1.740;2023-07-13T11:44:51;99861.09;;;18.11;100.00
51452;BME280;37521;52.020;-1.740;2023-07-13T11:47:40;99868.38;;;17.75;100.00
51452;BME280;37521;52.020;-1.740;2023-07-13T11:50:18;99865.03;;;17.49;100.00
51452;BME280;37521;52.020;-1.740;2023-07-13T11:52:48;99862.72;;;17.44;100.00
51452;BME280;37521;52.020;-1.740;2023-07-13T11:55:20;99853.63;;;17.47;100.00
51452;BME280;37521;52.020;-1.740;2023-07-13T11:57:56;99853.13;;;17.42;100.00
51452;BME280;37521;52.020;-1.740;2023-07-13T12:00:29;99855.69;;;17.43;100.00
51452;BME280;37521;52.020;-1.740;2023-07-13T12:03:02;99852.91;;;17.56;100.00
51452;BME280;37521;52.020;-1.740;2023-07-13T12:05:32;99853.16;;;17.64;100.00
51452;BME280;37521;52.020;-1.740;2023-07-13T12:08:09;99856.88;;;17.86;100.00
51452;BME280;37521;52.020;-1.740;2023-07-13T12:11:04;99858.88;;;18.38;100.00
51452;BME280;37521;52.020;-1.740;2023-07-13T12:13:37;99845.84;;;18.99;100.00
51452;BME280;37521;52.020;-1.740;2023-07-13T12:16:15;99847.88;;;19.07;100.00
51452;BME280;37521;52.020;-1.740;2023-07-13T12:18:44;99864.41;;;18.58;100.00
51452;BME280;37521;52.020;-1.740;2023-07-13T12:21:17;99857.97;;;17.94;100.00
51452;BME280;37521;52.020;-1.740;2023-07-13T12:23:48;99857.38;;;17.44;100.00
51452;BME280;37521;52.020;-1.740;2023-07-13T12:26:19;99863.00;;;17.17;100.00
51452;BME280;37521;52.020;-1.740;2023-07-13T12:28:49;99857.28;;;17.11;100.00
51452;BME280;37521;52.020;-1.740;2023-07-13T12:31:29;99855.84;;;17.18;100.00
51452;BME280;37521;52.020;-1.740;2023-07-13T12:34:00;99862.91;;;17.19;100.00
51452;BME280;37521;52.020;-1.740;2023-07-13T12:36:32;99863.59;;;17.10;100.00
51452;BME280;37521;52.020;-1.740;2023-07-13T12:39:06;99865.66;;;16.82;100.00
51452;BME280;37521;52.020;-1.740;2023-07-13T12:41:42;99879.50;;;16.51;100.00
51452;BME280;37521;52.020;-1.740;2023-07-13T12:44:14;99883.56;;;16.20;100.00
51452;BME280;37521;52.020;-1.740;2023-07-13T12:46:55;99882.09;;;16.03;100.00
51452;BME280;37521;52.020;-1.740;2023-07-13T12:49:27;99870.25;;;16.07;100.00
51452;BME280;37521;52.020;-1.740;2023-07-13T12:51:58;99874.81;;;16.18;100.00
51452;BME280;37521;52.020;-1.740;2023-07-13T12:54:28;99875.31;;;16.35;100.00
51452;BME280;37521;52.020;-1.740;2023-07-13T12:56:59;99878.06;;;16.47;100.00
51452;BME280;37521;52.020;-1.740;2023-07-13T12:59:32;99882.38;;;16.60;100.00
51452;BME280;37521;52.020;-1.740;2023-07-13T13:02:21;99853.69;;;16.88;100.00